Time;durP1;ratioP1;P1;durP2;ratioP2;P2;SDS_P1;SDS_P2;PMS_P1;PMS_P2;Temp;Humidity;BMP_temperature;BMP_pressure;BME280_temperature;BME280_humidity;BME280_pressure;Samples;Min_cycle;Max_cycle;Signal;HPM_P1;HPM_P2
2023/06/01 00:01:42;;;;;;;2.23;1.30;;;21.60;74.30;;;;;;5047889;28;20594;-51
2023/06/01 00:04:09;;;;;;;1.20;1.03;;;21.60;74.40;;;;;;5049526;28;20965;-50
2023/06/01 00:06:36;;;;;;;2.00;1.57;;;21.50;74.20;;;;;;5045320;28;20445;-52
2023/06/01 00:09:03;;;;;;;2.70;1.77;;;21.60;74.30;;;;;;5043606;28;20465;-53
2023/06/01 00:11:31;;;;;;;1.50;1.40;;;21.60;74.30;;;;;;5047964;28;20481;-53
2023/06/01 00:13:58;;;;;;;1.87;1.30;;;21.60;74.40;;;;;;5055158;28;20654;-53
2023/06/01 00:16:25;;;;;;;1.47;1.30;;;21.50;74.20;;;;;;5045057;28;20454;-51
2023/06/01 00:18:52;;;;;;;1.50;1.40;;;21.60;74.30;;;;;;5046482;28;20469;-51
2023/06/01 00:21:19;;;;;;;1.92;1.20;;;21.60;74.30;;;;;;5047423;28;20751;-52
2023/06/01 00:23:46;;;;;;;1.50;1.40;;;21.60;74.30;;;;;;5042272;28;20216;-54
2023/06/01 00:26:13;;;;;;;1.90;1.20;;;21.50;74.20;;;;;;5059691;28;20670;-49
2023/06/01 00:28:41;;;;;;;1.80;1.50;;;21.60;74.20;;;;;;5043042;28;20457;-51
2023/06/01 00:31:07;;;;;;;2.07;1.57;;;21.60;74.10;;;;;;5038952;28;20474;-50
2023/06/01 00:33:34;;;;;;;2.20;1.63;;;21.60;74.00;;;;;;5037985;28;20462;-49
2023/06/01 00:36:01;;;;;;;1.77;1.67;;;21.60;74.00;;;;;;5042577;28;20547;-53
2023/06/01 00:38:27;;;;;;;1.57;1.40;;;21.60;74.00;;;;;;5043454;28;20609;-50
2023/06/01 00:40:54;;;;;;;1.70;1.60;;;21.60;74.00;;;;;;5043060;28;20463;-53
2023/06/01 00:43:21;;;;;;;1.93;1.53;;;21.60;74.00;;;;;;5037588;28;20469;-54
2023/06/01 00:45:49;;;;;;;1.20;1.10;;;21.60;74.00;;;;;;5043546;28;20856;-53
2023/06/01 00:48:18;;;;;;;1.60;1.50;;;21.60;74.00;;;;;;5041006;28;20458;-52
2023/06/01 00:50:45;;;;;;;2.00;1.20;;;21.60;74.00;;;;;;5046513;28;20208;-52
2023/06/01 00:53:17;;;;;;;2.15;1.27;;;21.60;74.00;;;;;;5045283;28;20496;-53
2023/06/01 00:55:44;;;;;;;1.35;1.25;;;21.60;73.90;;;;;;5049968;28;20294;-51
2023/06/01 00:58:12;;;;;;;2.80;1.33;;;21.60;74.00;;;;;;5051256;28;20199;-53
2023/06/01 01:00:39;;;;;;;1.50;1.40;;;21.60;73.90;;;;;;5059044;28;20438;-50
2023/06/01 01:03:09;;;;;;;1.60;1.33;;;21.60;73.90;;;;;;5052210;28;20461;-50
2023/06/01 01:05:36;;;;;;;1.47;1.30;;;21.60;73.90;;;;;;5052542;28;20503;-51
2023/06/01 01:08:10;;;;;;;1.90;1.65;;;21.60;73.90;;;;;;5055854;28;20537;-49
2023/06/01 01:10:41;;;;;;;1.57;1.20;;;21.60;74.00;;;;;;5053225;28;20204;-49
2023/06/01 01:13:13;;;;;;;1.40;1.30;;;21.60;74.00;;;;;;5049839;28;20492;-51
2023/06/01 01:15:52;;;;;;;1.70;1.40;;;21.60;73.90;;;;;;5054414;28;20454;-51
2023/06/01 01:18:27;;;;;;;1.57;1.47;;;21.60;73.90;;;;;;5052084;28;20453;-52
2023/06/01 01:21:01;;;;;;;2.20;1.60;;;21.60;73.90;;;;;;5053195;28;20452;-53
2023/06/01 01:23:45;;;;;;;1.50;1.40;;;21.70;74.00;;;;;;5046857;28;20565;-50
2023/06/01 01:26:24;;;;;;;1.30;1.20;;;21.60;73.90;;;;;;5048238;28;20454;-51
2023/06/01 01:28:56;;;;;;;2.03;1.77;;;21.60;73.90;;;;;;5046629;28;20462;-52
2023/06/01 01:31:24;;;;;;;1.87;1.67;;;21.60;73.90;;;;;;5038306;28;20478;-49
2023/06/01 01:33:55;;;;;;;1.87;1.37;;;21.60;73.80;;;;;;5039656;28;20472;-50
2023/06/01 01:36:23;;;;;;;1.80;1.30;;;21.60;73.80;;;;;;5043143;28;20471;-53
2023/06/01 01:38:50;;;;;;;1.97;1.47;;;21.60;73.80;;;;;;5043118;28;20473;-50
2023/06/01 01:41:16;;;;;;;1.33;1.23;;;21.60;73.80;;;;;;5041394;28;20459;-51
2023/06/01 01:43:44;;;;;;;1.53;1.43;;;21.70;73.90;;;;;;5036074;28;20457;-50
2023/06/01 01:46:22;;;;;;;1.83;1.73;;;21.60;73.80;;;;;;5043075;28;20462;-54
2023/06/01 01:48:55;;;;;;;2.10;1.83;;;21.60;73.80;;;;;;5039473;28;20461;-54
2023/06/01 01:51:26;;;;;;;1.40;1.13;;;21.70;73.90;;;;;;5042214;28;20473;-51
2023/06/01 01:53:55;;;;;;;1.90;1.37;;;21.70;73.90;;;;;;5053551;28;20823;-51
2023/06/01 01:56:23;;;;;;;1.73;1.27;;;21.70;73.90;;;;;;5040063;28;20519;-52
2023/06/01 01:58:50;;;;;;;1.70;1.37;;;21.70;73.90;;;;;;5037701;28;20462;-50
2023/06/01 02:01:19;;;;;;;1.50;1.40;;;21.70;73.90;;;;;;5040677;28;20462;-51
2023/06/01 02:03:46;;;;;;;1.40;1.20;;;21.70;73.90;;;;;;5040720;28;20464;-52
2023/06/01 02:06:12;;;;;;;1.60;1.30;;;21.70;73.90;;;;;;5039916;28;20461;-54
2023/06/01 02:08:39;;;;;;;1.77;1.57;;;21.70;73.90;;;;;;5042061;28;20470;-53
2023/06/01 02:11:06;;;;;;;1.40;1.20;;;21.70;73.80;;;;;;5039865;28;20893;-52
2023/06/01 02:13:33;;;;;;;1.63;1.25;;;21.70;73.90;;;;;;5047677;28;20504;-52
2023/06/01 02:15:59;;;;;;;1.30;1.20;;;21.70;73.80;;;;;;5042542;28;20265;-53
2023/06/01 02:18:29;;;;;;;1.77;1.67;;;21.70;73.80;;;;;;5038238;28;20466;-51
2023/06/01 02:20:56;;;;;;;1.23;1.13;;;21.70;73.80;;;;;;5041203;28;20458;-53
2023/06/01 02:23:22;;;;;;;1.40;1.30;;;21.70;73.80;;;;;;5042550;28;20477;-53
2023/06/01 02:25:50;;;;;;;1.48;1.25;;;21.70;73.80;;;;;;5041853;28;20458;-52
2023/06/01 02:28:16;;;;;;;1.52;1.20;;;21.70;73.80;;;;;;5039026;28;20199;-51
2023/06/01 02:30:43;;;;;;;1.60;1.27;;;21.60;73.70;;;;;;5041045;28;20246;-52
2023/06/01 02:33:10;;;;;;;1.30;1.15;;;21.70;73.80;;;;;;5032819;28;20478;-52
2023/06/01 02:35:39;;;;;;;1.20;1.10;;;21.70;73.80;;;;;;5041675;28;20196;-52
2023/06/01 02:38:06;;;;;;;1.48;1.25;;;21.60;73.70;;;;;;5037676;28;20655;-50
2023/06/01 02:40:32;;;;;;;1.50;1.10;;;21.60;73.70;;;;;;5035449;28;20199;-52
2023/06/01 02:42:59;;;;;;;1.97;1.50;;;21.70;73.70;;;;;;5041602;28;20462;-51
2023/06/01 02:45:26;;;;;;;1.30;1.20;;;21.70;73.80;;;;;;5048428;28;20463;-53
2023/06/01 02:47:52;;;;;;;1.20;1.10;;;21.70;73.70;;;;;;5042622;28;20461;-53
2023/06/01 02:50:19;;;;;;;1.53;1.23;;;21.70;73.70;;;;;;5030075;28;20531;-51
2023/06/01 02:52:48;;;;;;;1.40;1.30;;;21.60;73.70;;;;;;5033012;28;20477;-52
2023/06/01 02:55:14;;;;;;;1.40;1.20;;;21.70;73.80;;;;;;5050888;28;20453;-50
2023/06/01 02:57:41;;;;;;;1.67;1.43;;;21.60;73.70;;;;;;5043007;28;21107;-54
2023/06/01 03:00:15;;;;;;;1.40;1.30;;;21.70;73.80;;;;;;5040316;28;20519;-51
2023/06/01 03:02:42;;;;;;;2.50;1.73;;;21.70;73.70;;;;;;5033786;28;20501;-50
2023/06/01 03:05:09;;;;;;;1.50;1.33;;;21.70;73.70;;;;;;5039054;28;20514;-51
2023/06/01 03:07:36;;;;;;;1.13;1.03;;;21.70;73.70;;;;;;5037925;28;20473;-52
2023/06/01 03:10:06;;;;;;;1.77;1.50;;;21.70;73.70;;;;;;5039077;28;20489;-51
2023/06/01 03:12:33;;;;;;;1.55;1.10;;;21.70;73.70;;;;;;5041215;28;20226;-51
2023/06/01 03:14:59;;;;;;;1.60;1.47;;;21.70;73.70;;;;;;5041407;28;20208;-49
2023/06/01 03:17:26;;;;;;;1.10;1.00;;;21.60;73.60;;;;;;5037739;28;20980;-50
2023/06/01 03:19:53;;;;;;;1.80;1.30;;;21.60;73.50;;;;;;5039726;28;20486;-52
2023/06/01 03:22:20;;;;;;;1.40;1.30;;;21.60;73.50;;;;;;5041484;28;20956;-53
2023/06/01 03:24:49;;;;;;;1.63;1.30;;;21.70;73.70;;;;;;5039414;28;20477;-49
2023/06/01 03:27:17;;;;;;;2.15;1.38;;;21.60;74.30;;;;;;5037536;28;20470;-50
2023/06/01 03:29:44;;;;;;;1.52;1.20;;;21.60;73.50;;;;;;5039238;28;20195;-50
2023/06/01 03:32:10;;;;;;;1.70;1.50;;;21.60;73.50;;;;;;5038725;28;20250;-51
2023/06/01 03:34:38;;;;;;;1.75;1.40;;;21.60;73.50;;;;;;5039019;28;20290;-51
2023/06/01 03:37:07;;;;;;;3.00;1.70;;;21.70;73.60;;;;;;5040397;28;20206;-52
2023/06/01 03:39:35;;;;;;;1.30;1.20;;;21.60;73.50;;;;;;5041707;28;20556;-51
2023/06/01 03:42:02;;;;;;;1.37;1.00;;;21.60;73.50;;;;;;5035832;28;20465;-50
2023/06/01 03:44:30;;;;;;;1.40;1.10;;;21.60;73.40;;;;;;5036320;28;20472;-52
2023/06/01 03:46:56;;;;;;;1.50;1.40;;;21.70;73.60;;;;;;5042553;28;20465;-53
2023/06/01 03:49:23;;;;;;;1.30;1.00;;;21.70;73.60;;;;;;5036786;28;20524;-49
2023/06/01 03:51:50;;;;;;;1.50;1.30;;;21.60;73.50;;;;;;5039188;28;20449;-51
2023/06/01 03:54:17;;;;;;;1.40;1.27;;;21.60;73.50;;;;;;5040792;28;20479;-52
2023/06/01 03:56:43;;;;;;;1.60;1.40;;;21.70;73.50;;;;;;5035645;28;20463;-50
2023/06/01 03:59:10;;;;;;;1.73;1.30;;;21.60;73.50;;;;;;5036868;28;20458;-51
2023/06/01 04:01:39;;;;;;;1.77;1.43;;;21.60;73.50;;;;;;5041001;28;20868;-50
2023/06/01 04:04:08;;;;;;;1.50;1.40;;;21.60;73.50;;;;;;5037789;28;20458;-52
2023/06/01 04:06:35;;;;;;;1.50;1.40;;;21.60;73.50;;;;;;5040314;28;20196;-50
2023/06/01 04:09:06;;;;;;;1.50;1.17;;;21.60;73.40;;;;;;5036978;28;20833;-50
2023/06/01 04:11:33;;;;;;;1.52;1.42;;;21.60;73.40;;;;;;5050251;28;20811;-49
2023/06/01 04:13:59;;;;;;;1.52;1.42;;;21.60;73.50;;;;;;5036675;28;20257;-49
2023/06/01 04:16:26;;;;;;;1.47;1.27;;;21.70;73.50;;;;;;5038540;28;20199;-49
2023/06/01 04:18:54;;;;;;;1.40;1.20;;;21.60;73.50;;;;;;5035459;28;20531;-50
2023/06/01 04:21:21;;;;;;;1.20;1.10;;;21.60;73.50;;;;;;5042353;28;20924;-50
2023/06/01 04:23:48;;;;;;;1.63;1.53;;;21.60;73.40;;;;;;5040505;28;20514;-51
2023/06/01 04:26:15;;;;;;;2.20;1.40;;;21.60;73.40;;;;;;5040406;28;20552;-49
2023/06/01 04:28:44;;;;;;;1.40;1.27;;;21.60;73.40;;;;;;5034363;28;20524;-49
2023/06/01 04:31:16;;;;;;;1.40;1.30;;;21.60;73.40;;;;;;5040995;28;20541;-48
2023/06/01 04:33:44;;;;;;;1.30;1.20;;;21.60;73.40;;;;;;5033286;28;20226;-53
2023/06/01 04:36:12;;;;;;;1.45;1.25;;;21.60;73.40;;;;;;5044842;28;20458;-51
2023/06/01 04:38:41;;;;;;;1.67;1.38;;;21.60;73.40;;;;;;5042189;28;20286;-50
2023/06/01 04:41:09;;;;;;;1.30;1.20;;;21.60;73.40;;;;;;5046934;28;20210;-52
2023/06/01 04:43:38;;;;;;;1.80;1.48;;;21.60;73.40;;;;;;5039729;28;20582;-50
2023/06/01 04:46:05;;;;;;;1.58;1.30;;;21.60;73.50;;;;;;5039251;28;20203;-50
2023/06/01 04:48:32;;;;;;;1.40;1.30;;;21.60;73.40;;;;;;5036490;28;20576;-49
2023/06/01 04:50:59;;;;;;;1.73;1.20;;;21.60;73.50;;;;;;5047914;28;20462;-50
2023/06/01 04:53:27;;;;;;;1.38;1.20;;;21.60;73.40;;;;;;5040027;28;20930;-50
2023/06/01 04:55:56;;;;;;;1.88;1.20;;;21.60;73.40;;;;;;5047308;28;20609;-51
2023/06/01 04:58:22;;;;;;;1.80;1.65;;;21.60;73.40;;;;;;5043124;28;20249;-53
2023/06/01 05:00:49;;;;;;;1.42;1.30;;;21.60;73.40;;;;;;5042746;28;20249;-48
2023/06/01 05:03:16;;;;;;;1.90;1.35;;;21.60;73.40;;;;;;5040661;28;20390;-50
2023/06/01 05:05:43;;;;;;;1.20;1.10;;;21.60;73.40;;;;;;5043012;28;20199;-49
2023/06/01 05:08:10;;;;;;;2.05;1.40;;;21.60;73.40;;;;;;5049986;28;20614;-51
2023/06/01 05:10:39;;;;;;;1.40;1.30;;;21.60;73.40;;;;;;5044887;28;20515;-50
2023/06/01 05:13:06;;;;;;;1.50;1.40;;;21.60;73.40;;;;;;5046307;28;20484;-49
2023/06/01 05:15:32;;;;;;;1.50;1.20;;;21.60;73.40;;;;;;5051506;28;20461;-49
2023/06/01 05:17:59;;;;;;;1.50;1.20;;;21.60;73.40;;;;;;5044721;28;20216;-51
2023/06/01 05:20:26;;;;;;;1.85;1.50;;;21.60;73.50;;;;;;5056114;28;20822;-50
2023/06/01 05:22:53;;;;;;;1.40;1.30;;;21.60;73.50;;;;;;5043039;28;20203;-49
2023/06/01 05:25:19;;;;;;;1.63;1.20;;;21.60;73.50;;;;;;5043480;28;20223;-49
2023/06/01 05:27:47;;;;;;;1.30;1.20;;;21.60;73.50;;;;;;5039872;28;20207;-54
2023/06/01 05:30:14;;;;;;;1.50;1.40;;;21.60;73.50;;;;;;5038741;28;20465;-50
2023/06/01 05:32:41;;;;;;;1.20;1.10;;;21.60;73.50;;;;;;5040541;28;20215;-49
2023/06/01 05:35:08;;;;;;;1.53;1.40;;;21.60;73.40;;;;;;5042075;28;20473;-55
2023/06/01 05:37:35;;;;;;;1.60;1.50;;;21.60;73.50;;;;;;5040102;28;20807;-51
2023/06/01 05:40:02;;;;;;;1.38;1.27;;;21.60;73.50;;;;;;5040645;28;20454;-49
2023/06/01 05:42:28;;;;;;;2.03;1.50;;;21.70;73.60;;;;;;5045516;28;20200;-50
2023/06/01 05:44:56;;;;;;;2.05;1.55;;;21.70;73.60;;;;;;5046750;28;20457;-49
2023/06/01 05:47:23;;;;;;;1.42;1.33;;;21.60;73.50;;;;;;5038262;28;20195;-54
2023/06/01 05:49:50;;;;;;;1.70;1.50;;;21.70;73.50;;;;;;5040354;28;20195;-51
2023/06/01 05:52:17;;;;;;;1.27;1.17;;;21.70;73.50;;;;;;5037412;28;20549;-52
2023/06/01 05:54:44;;;;;;;1.50;1.40;;;21.70;73.50;;;;;;5043224;28;21028;-51
2023/06/01 05:57:10;;;;;;;1.40;1.10;;;21.70;73.60;;;;;;5036102;28;20453;-52
2023/06/01 05:59:37;;;;;;;1.10;1.00;;;21.70;73.50;;;;;;5042985;28;20867;-49
2023/06/01 06:02:06;;;;;;;2.10;1.20;;;21.70;73.50;;;;;;5038793;28;20993;-49
2023/06/01 06:04:32;;;;;;;1.40;1.30;;;21.70;74.30;;;;;;5042150;28;20461;-50
2023/06/01 06:06:59;;;;;;;1.23;1.13;;;21.70;73.50;;;;;;5042513;28;20466;-49
2023/06/01 06:09:26;;;;;;;1.63;1.30;;;21.70;73.50;;;;;;5050764;28;20470;-50
2023/06/01 06:11:53;;;;;;;1.43;1.33;;;21.70;73.40;;;;;;5031729;28;20579;-50
2023/06/01 06:14:19;;;;;;;1.13;1.03;;;21.70;73.40;;;;;;5032914;28;20483;-54
2023/06/01 06:16:46;;;;;;;1.70;1.60;;;21.70;73.40;;;;;;5038690;28;20462;-52
2023/06/01 06:19:15;;;;;;;1.43;1.33;;;21.70;73.40;;;;;;5039784;28;21015;-50
2023/06/01 06:21:42;;;;;;;1.33;1.23;;;21.80;73.50;;;;;;5039271;28;20929;-51
2023/06/01 06:24:09;;;;;;;1.23;1.13;;;21.70;73.40;;;;;;5042103;28;21224;-49
2023/06/01 06:26:36;;;;;;;1.33;1.20;;;21.80;73.50;;;;;;5037477;28;20466;-50
2023/06/01 06:29:03;;;;;;;1.57;1.47;;;21.80;73.50;;;;;;5041069;28;20454;-51
2023/06/01 06:31:29;;;;;;;1.60;1.50;;;21.80;73.50;;;;;;5030193;28;20462;-50
2023/06/01 06:33:56;;;;;;;1.40;1.27;;;21.80;73.50;;;;;;5035362;28;20507;-49
2023/06/01 06:36:24;;;;;;;1.20;1.10;;;21.80;73.40;;;;;;5044403;28;20528;-49
2023/06/01 06:38:50;;;;;;;1.40;1.30;;;21.80;73.50;;;;;;5049727;28;20473;-50
2023/06/01 06:41:17;;;;;;;1.70;1.60;;;21.80;73.40;;;;;;5047037;28;20511;-48
2023/06/01 06:43:44;;;;;;;1.30;1.20;;;21.80;73.40;;;;;;5050751;28;20461;-49
2023/06/01 06:46:10;;;;;;;1.40;1.20;;;21.80;73.40;;;;;;5049444;28;20463;-52
2023/06/01 06:48:37;;;;;;;1.30;1.20;;;21.80;73.40;;;;;;5033836;28;20459;-52
2023/06/01 06:51:04;;;;;;;1.10;1.00;;;21.80;73.40;;;;;;5043432;28;20465;-53
2023/06/01 06:53:33;;;;;;;1.47;1.33;;;21.80;73.30;;;;;;5045252;28;20482;-49
2023/06/01 06:55:59;;;;;;;1.47;1.30;;;21.80;73.40;;;;;;5044629;28;20983;-51
2023/06/01 06:58:26;;;;;;;1.20;1.00;;;21.80;73.30;;;;;;5049615;28;20511;-49
2023/06/01 07:00:53;;;;;;;7.00;2.97;;;21.80;73.40;;;;;;5047418;28;20974;-54
2023/06/01 07:03:20;;;;;;;5.57;3.03;;;21.80;73.40;;;;;;5043513;28;21141;-50
2023/06/01 07:05:47;;;;;;;5.17;4.10;;;21.80;73.80;;;;;;5050835;28;20512;-49
2023/06/01 07:08:14;;;;;;;5.20;3.37;;;21.70;71.80;;;;;;5041099;28;20442;-50
2023/06/01 07:10:42;;;;;;;5.10;4.13;;;21.70;71.10;;;;;;5041247;28;20462;-54
2023/06/01 07:13:09;;;;;;;8.90;4.70;;;21.60;69.80;;;;;;5045213;28;20474;-50
2023/06/01 07:15:35;;;;;;;10.23;4.67;;;21.60;69.20;;;;;;5046932;28;20465;-51
2023/06/01 07:18:02;;;;;;;9.70;6.13;;;21.50;68.80;;;;;;5044017;28;20470;-53
2023/06/01 07:20:29;;;;;;;5.77;4.17;;;21.50;68.30;;;;;;5042689;28;20204;-50
2023/06/01 07:22:55;;;;;;;5.97;4.33;;;21.50;68.50;;;;;;5047437;28;20540;-54
2023/06/01 07:25:22;;;;;;;6.13;4.13;;;21.50;69.30;;;;;;5046452;28;20449;-50
2023/06/01 07:27:51;;;;;;;4.15;3.30;;;21.50;69.90;;;;;;5045000;28;20462;-50
2023/06/01 07:30:17;;;;;;;4.65;4.20;;;21.60;69.50;;;;;;5042928;28;20698;-53
2023/06/01 07:32:44;;;;;;;5.22;3.60;;;21.60;69.60;;;;;;5047147;28;20204;-50
2023/06/01 07:35:11;;;;;;;3.97;3.10;;;21.60;69.60;;;;;;5045271;28;20315;-51
2023/06/01 07:37:38;;;;;;;5.55;4.00;;;21.60;69.80;;;;;;5041592;28;20962;-48
2023/06/01 07:40:06;;;;;;;4.15;3.30;;;21.60;70.00;;;;;;5038146;28;20192;-48
2023/06/01 07:42:33;;;;;;;3.63;2.77;;;21.60;70.00;;;;;;5040629;28;20199;-50
2023/06/01 07:45:02;;;;;;;3.57;2.33;;;21.60;70.40;;;;;;5040382;28;20457;-53
2023/06/01 07:47:29;;;;;;;2.67;2.47;;;21.70;70.50;;;;;;5035544;28;20446;-49
2023/06/01 07:49:55;;;;;;;5.77;3.10;;;21.60;70.80;;;;;;5041761;28;20525;-49
2023/06/01 07:52:23;;;;;;;6.83;3.67;;;21.70;71.20;;;;;;5045075;28;21090;-48
2023/06/01 07:54:49;;;;;;;2.70;2.50;;;21.70;72.40;;;;;;5046338;28;20478;-50
2023/06/01 07:57:16;;;;;;;4.23;2.67;;;21.70;71.80;;;;;;5040836;28;20526;-49
2023/06/01 07:59:43;;;;;;;4.63;2.80;;;21.70;72.70;;;;;;5037144;28;20454;-50
2023/06/01 08:02:13;;;;;;;7.32;3.30;;;21.70;71.90;;;;;;5043112;28;20504;-48
2023/06/01 08:04:40;;;;;;;16.73;3.47;;;21.70;71.80;;;;;;5044166;28;20683;-50
2023/06/01 08:07:08;;;;;;;6.63;3.63;;;21.70;71.70;;;;;;5047216;28;20462;-49
2023/06/01 08:09:37;;;;;;;4.03;2.87;;;21.70;71.60;;;;;;5042093;28;20468;-50
2023/06/01 08:12:04;;;;;;;3.50;3.20;;;21.70;71.70;;;;;;5039930;28;20481;-52
2023/06/01 08:14:33;;;;;;;5.33;2.40;;;21.70;71.80;;;;;;5035165;28;20660;-55
2023/06/01 08:17:01;;;;;;;9.80;3.67;;;21.70;71.80;;;;;;5033398;28;20501;-52
2023/06/01 08:19:29;;;;;;;7.50;3.10;;;21.70;71.90;;;;;;5044764;28;20905;-50
2023/06/01 08:21:55;;;;;;;7.38;3.20;;;21.70;72.00;;;;;;5039662;28;21106;-49
2023/06/01 08:24:24;;;;;;;5.43;3.60;;;21.70;71.80;;;;;;5042390;28;20302;-48
2023/06/01 08:26:51;;;;;;;3.07;2.83;;;21.70;71.80;;;;;;5043378;28;20457;-48
2023/06/01 08:29:18;;;;;;;4.27;2.77;;;21.70;72.00;;;;;;5045883;28;20553;-49
2023/06/01 08:31:45;;;;;;;2.80;2.60;;;21.80;72.10;;;;;;5049701;28;20520;-48
2023/06/01 08:34:11;;;;;;;5.60;2.90;;;21.70;72.00;;;;;;5043215;28;21016;-49
2023/06/01 08:36:39;;;;;;;6.07;3.47;;;21.80;72.10;;;;;;5047969;28;20461;-49
2023/06/01 08:39:21;;;;;;;6.20;3.20;;;21.70;72.00;;;;;;5047890;28;20637;-52
2023/06/01 08:42:04;;;;;;;2.70;2.50;;;21.70;72.00;;;;;;5058596;28;20568;-52
2023/06/01 08:44:35;;;;;;;4.80;2.97;;;21.80;72.10;;;;;;5045532;28;20211;-49
2023/06/01 08:47:03;;;;;;;4.30;3.20;;;21.80;72.10;;;;;;5045351;28;20511;-52
2023/06/01 08:49:32;;;;;;;4.93;2.85;;;21.80;72.10;;;;;;5050294;28;20766;-51
2023/06/01 08:52:02;;;;;;;2.70;2.50;;;21.80;72.00;;;;;;5048509;28;20197;-50
2023/06/01 08:54:30;;;;;;;2.73;2.53;;;21.80;72.10;;;;;;5048821;28;20481;-48
2023/06/01 08:57:00;;;;;;;4.43;2.90;;;21.80;72.10;;;;;;5049514;28;20558;-51
2023/06/01 08:59:26;;;;;;;3.33;2.53;;;21.80;72.10;;;;;;5050905;28;20493;-51
2023/06/01 09:01:54;;;;;;;3.13;2.50;;;21.80;72.10;;;;;;5047129;28;20200;-49
2023/06/01 09:04:21;;;;;;;3.07;2.77;;;21.80;72.10;;;;;;5045645;28;20469;-49
2023/06/01 09:06:47;;;;;;;6.90;3.10;;;21.80;72.10;;;;;;5050898;28;20921;-50
2023/06/01 09:09:15;;;;;;;4.80;3.38;;;21.80;72.10;;;;;;5040081;28;20464;-48
2023/06/01 09:11:42;;;;;;;5.63;2.73;;;21.80;72.10;;;;;;5051744;28;20249;-48
2023/06/01 09:14:21;;;;;;;4.00;2.93;;;21.80;72.10;;;;;;5051990;28;20479;-48
2023/06/01 09:16:48;;;;;;;3.00;2.50;;;21.80;72.20;;;;;;5055029;28;20457;-49
2023/06/01 09:19:15;;;;;;;3.13;2.80;;;21.80;72.10;;;;;;5044581;28;20854;-49
2023/06/01 09:21:57;;;;;;;2.33;2.13;;;21.80;72.20;;;;;;5056535;28;20545;-50
2023/06/01 09:24:25;;;;;;;2.93;2.57;;;21.80;72.30;;;;;;5045793;28;20581;-49
2023/06/01 09:26:58;;;;;;;2.77;2.57;;;21.80;72.20;;;;;;5052143;28;21940;-50
2023/06/01 09:29:25;;;;;;;3.95;2.72;;;21.80;72.20;;;;;;5051454;28;20461;-50
2023/06/01 09:31:51;;;;;;;3.57;3.10;;;21.80;72.30;;;;;;5051169;28;20586;-51
2023/06/01 09:34:20;;;;;;;2.60;2.40;;;21.80;73.20;;;;;;5046849;28;20528;-50
2023/06/01 09:36:48;;;;;;;5.43;2.90;;;21.80;72.30;;;;;;5051515;28;20462;-49
2023/06/01 09:39:16;;;;;;;10.90;2.93;;;21.80;72.30;;;;;;5051583;28;20198;-49
2023/06/01 09:41:51;;;;;;;3.97;2.90;;;21.80;72.30;;;;;;5050199;28;20457;-48
2023/06/01 09:44:26;;;;;;;2.80;2.37;;;21.80;72.40;;;;;;5049662;28;20499;-53
2023/06/01 09:46:55;;;;;;;3.63;3.33;;;21.80;72.40;;;;;;5039378;28;20453;-48
2023/06/01 09:49:24;;;;;;;2.60;2.40;;;21.80;72.50;;;;;;5036865;28;20508;-50
2023/06/01 09:51:52;;;;;;;3.63;2.87;;;21.80;72.50;;;;;;5051046;28;20486;-48
2023/06/01 09:54:29;;;;;;;3.60;2.70;;;21.80;72.50;;;;;;5054626;28;20566;-49
2023/06/01 09:56:58;;;;;;;3.13;2.83;;;21.80;72.50;;;;;;5040856;28;20454;-49
2023/06/01 09:59:28;;;;;;;2.90;2.70;;;21.80;72.50;;;;;;5049685;28;20593;-48
2023/06/01 10:01:57;;;;;;;2.40;2.20;;;21.80;72.50;;;;;;5051829;28;20442;-48
2023/06/01 10:04:26;;;;;;;2.93;2.63;;;21.80;72.50;;;;;;5049398;28;20493;-52
2023/06/01 10:06:55;;;;;;;4.00;2.63;;;21.80;72.50;;;;;;5050278;28;20466;-48
2023/06/01 10:09:24;;;;;;;3.23;2.93;;;21.70;72.30;;;;;;5045511;28;20453;-51
2023/06/01 10:11:54;;;;;;;3.40;2.73;;;21.80;72.50;;;;;;5047419;28;20519;-49
2023/06/01 10:14:23;;;;;;;4.33;2.70;;;21.80;72.50;;;;;;5051878;28;20531;-50
2023/06/01 10:16:51;;;;;;;3.10;2.90;;;21.80;72.50;;;;;;5049282;28;21020;-50
2023/06/01 10:19:19;;;;;;;2.27;2.07;;;21.80;72.60;;;;;;5048229;28;20521;-51
2023/06/01 10:21:47;;;;;;;2.93;2.63;;;21.80;72.50;;;;;;5041965;28;20529;-50
2023/06/01 10:24:14;;;;;;;4.27;2.80;;;21.80;72.60;;;;;;5051074;28;20504;-50
2023/06/01 10:26:47;;;;;;;3.08;2.78;;;21.80;72.60;;;;;;5047819;28;20854;-50
2023/06/01 10:29:18;;;;;;;3.40;2.93;;;21.80;72.50;;;;;;5049920;28;20708;-52
2023/06/01 10:31:46;;;;;;;3.80;2.67;;;21.80;72.60;;;;;;5053597;28;20848;-49
2023/06/01 10:34:13;;;;;;;3.03;2.70;;;21.80;72.60;;;;;;5047239;28;20559;-52
2023/06/01 10:37:15;;;;;;;2.60;2.40;;;21.80;72.60;;;;;;5048729;28;20821;-54
2023/06/01 10:39:42;;;;;;;3.00;2.60;;;21.80;72.60;;;;;;5044501;28;20250;-51
2023/06/01 10:42:39;;;;;;;2.80;2.60;;;21.80;72.60;;;;;;5046215;28;20717;-49
2023/06/01 10:45:21;;;;;;;4.63;2.73;;;21.80;72.60;;;;;;5041079;28;20465;-49
2023/06/01 10:47:50;;;;;;;3.50;2.70;;;21.80;72.50;;;;;;5034528;28;20528;-53
2023/06/01 10:50:18;;;;;;;2.77;2.57;;;21.80;72.60;;;;;;5048303;28;20460;-49
2023/06/01 10:52:45;;;;;;;3.80;3.47;;;21.80;72.60;;;;;;5048060;28;20539;-51
2023/06/01 10:55:25;;;;;;;4.13;3.23;;;21.70;72.50;;;;;;5053596;28;20485;-52
2023/06/01 10:57:52;;;;;;;2.53;2.33;;;21.70;72.50;;;;;;5046270;28;20457;-50
2023/06/01 11:00:22;;;;;;;2.47;2.27;;;21.70;73.30;;;;;;5051438;28;20889;-50
2023/06/01 11:02:53;;;;;;;4.13;2.50;;;21.70;72.50;;;;;;5046704;28;20461;-53
2023/06/01 11:05:40;;;;;;;2.88;2.53;;;21.70;72.50;;;;;;5051693;28;20434;-52
2023/06/01 11:08:08;;;;;;;2.22;2.00;;;21.70;72.60;;;;;;5050054;28;20556;-54
2023/06/01 11:10:59;;;;;;;2.33;2.13;;;21.70;72.50;;;;;;5050902;28;20286;-49
2023/06/01 11:13:27;;;;;;;6.70;2.80;;;21.70;72.50;;;;;;5048949;28;20443;-52
2023/06/01 11:16:31;;;;;;;5.20;3.43;;;21.70;72.50;;;;;;5049085;28;20254;-49
2023/06/01 11:19:02;;;;;;;2.60;2.40;;;21.70;72.60;;;;;;4979151;28;20464;-49
2023/06/01 11:21:31;;;;;;;3.17;2.87;;;21.70;72.50;;;;;;5037272;28;20490;-52
2023/06/01 11:24:00;;;;;;;2.80;2.33;;;21.70;72.50;;;;;;5048489;28;20475;-49
2023/06/01 11:26:32;;;;;;;3.37;3.10;;;21.70;72.60;;;;;;5044818;28;20461;-50
2023/06/01 11:29:08;;;;;;;3.33;2.97;;;21.70;72.50;;;;;;5046133;28;20455;-49
2023/06/01 11:31:37;;;;;;;3.27;2.97;;;21.70;72.50;;;;;;5044566;28;20468;-50
2023/06/01 11:34:05;;;;;;;8.40;3.37;;;21.70;72.80;;;;;;5045016;28;20561;-49
2023/06/01 11:36:37;;;;;;;4.57;4.00;;;21.70;72.60;;;;;;5047692;28;20560;-50
2023/06/01 11:39:07;;;;;;;7.33;3.87;;;21.70;72.30;;;;;;5036389;28;20541;-50
2023/06/01 11:41:35;;;;;;;5.80;3.90;;;21.60;72.40;;;;;;5046343;28;20973;-49
2023/06/01 11:44:02;;;;;;;5.07;3.47;;;21.70;72.60;;;;;;5044202;28;20970;-51
2023/06/01 11:46:28;;;;;;;3.47;3.17;;;21.70;72.80;;;;;;5047408;28;20458;-52
2023/06/01 11:49:04;;;;;;;9.53;4.27;;;21.70;72.90;;;;;;5046032;28;20511;-49
2023/06/01 11:51:34;;;;;;;4.23;3.83;;;21.60;72.80;;;;;;5051992;28;20456;-51
2023/06/01 11:54:05;;;;;;;6.25;3.72;;;21.60;72.60;;;;;;5043733;28;20462;-53
2023/06/01 11:56:33;;;;;;;6.53;3.40;;;21.60;72.60;;;;;;5034322;28;20249;-51
2023/06/01 11:59:01;;;;;;;6.00;3.70;;;21.60;72.60;;;;;;5041736;28;20454;-52
2023/06/01 12:01:28;;;;;;;4.47;3.80;;;21.70;72.80;;;;;;5043812;28;20511;-49
2023/06/01 12:03:56;;;;;;;5.00;2.63;;;21.70;72.80;;;;;;5040115;28;20465;-49
2023/06/01 12:06:25;;;;;;;4.28;3.30;;;21.70;72.80;;;;;;5049078;28;20954;-49
2023/06/01 12:08:55;;;;;;;4.10;2.60;;;21.70;73.10;;;;;;5046289;28;20668;-49
2023/06/01 12:11:26;;;;;;;5.93;2.92;;;21.70;73.00;;;;;;5040785;28;20865;-49
2023/06/01 12:13:53;;;;;;;3.33;3.03;;;21.70;73.10;;;;;;5046310;28;20257;-49
2023/06/01 12:16:20;;;;;;;3.60;2.97;;;21.60;72.90;;;;;;5052027;28;20478;-50
2023/06/01 12:18:47;;;;;;;3.17;2.97;;;21.60;73.00;;;;;;5045092;28;20466;-51
2023/06/01 12:21:15;;;;;;;5.23;2.43;;;21.60;73.00;;;;;;5051416;28;20861;-49
2023/06/01 12:23:41;;;;;;;3.90;2.70;;;21.70;73.10;;;;;;5051893;28;20910;-50
2023/06/01 12:26:10;;;;;;;2.90;2.70;;;21.60;73.00;;;;;;5051291;28;20596;-50
2023/06/01 12:28:55;;;;;;;4.72;4.03;;;21.60;73.00;;;;;;5046646;28;20200;-53
2023/06/01 12:31:23;;;;;;;4.47;3.00;;;21.60;73.10;;;;;;5051892;28;20191;-51
2023/06/01 12:33:50;;;;;;;3.53;3.10;;;21.60;73.00;;;;;;5047845;28;20453;-49
2023/06/01 12:36:31;;;;;;;2.70;2.50;;;21.60;73.00;;;;;;5058104;28;20478;-51
2023/06/01 12:38:58;;;;;;;3.60;3.10;;;21.60;73.10;;;;;;5055922;28;20802;-51
2023/06/01 12:41:27;;;;;;;4.37;3.13;;;21.60;73.10;;;;;;5053371;28;20453;-50
2023/06/01 12:43:54;;;;;;;3.10;2.90;;;21.60;73.00;;;;;;5053131;28;20861;-49
2023/06/01 12:46:21;;;;;;;3.70;3.40;;;21.60;73.10;;;;;;5048482;28;20541;-50
2023/06/01 12:48:48;;;;;;;2.60;2.40;;;21.60;73.10;;;;;;5052207;28;20460;-54
2023/06/01 12:51:15;;;;;;;3.90;2.80;;;21.60;73.00;;;;;;5048683;28;20389;-49
2023/06/01 12:53:43;;;;;;;3.28;2.97;;;21.60;73.10;;;;;;5049683;28;20466;-48